Time;durP1;ratioP1;P1;durP2;ratioP2;P2;SDS_P1;SDS_P2;PMS_P1;PMS_P2;Temp;Humidity;BMP_temperature;BMP_pressure;BME280_temperature;BME280_humidity;BME280_pressure;Samples;Min_cycle;Max_cycle;Signal;HPM_P1;HPM_P2
2024/04/11 00:04:14;;;;;;;8.85;1.10;;;12.80;1.00;;;;;;22096827;26;20369;-44
2024/04/11 00:14:15;;;;;;;5.72;1.00;;;12.90;1.00;;;;;;22113108;26;20485;-44
2024/04/11 00:24:16;;;;;;;7.20;1.10;;;12.90;1.00;;;;;;22075497;26;19997;-43
2024/04/11 00:34:23;;;;;;;6.63;1.30;;;12.90;1.00;;;;;;22081330;26;20004;-43
2024/04/11 00:44:25;;;;;;;4.10;1.00;;;12.90;1.00;;;;;;22085293;26;20015;-43
2024/04/11 00:54:27;;;;;;;6.88;1.38;;;12.90;1.00;;;;;;22079592;26;20004;-43
2024/04/11 01:04:30;;;;;;;5.97;1.33;;;12.80;1.00;;;;;;22063756;26;19997;-43
2024/04/11 01:14:31;;;;;;;6.60;1.10;;;12.80;1.00;;;;;;22071692;26;20020;-43
2024/04/11 01:24:34;;;;;;;4.20;1.23;;;12.80;1.00;;;;;;22080921;26;20001;-43
2024/04/11 01:34:35;;;;;;;4.35;1.08;;;12.80;1.00;;;;;;22068819;26;20012;-43
2024/04/11 01:44:36;;;;;;;6.00;1.50;;;12.80;1.00;;;;;;22072684;26;19996;-43
2024/04/11 01:54:38;;;;;;;6.15;1.20;;;12.80;1.00;;;;;;22077349;26;20001;-43
2024/04/11 02:04:39;;;;;;;9.43;1.20;;;12.90;1.00;;;;;;22044391;26;20575;-43
2024/04/11 02:14:42;;;;;;;7.40;1.27;;;13.20;1.00;;;;;;22080698;26;20234;-43
2024/04/11 02:24:43;;;;;;;8.77;1.60;;;13.30;1.00;;;;;;22075089;26;20503;-43
2024/04/11 02:34:44;;;;;;;5.60;1.58;;;13.40;1.00;;;;;;22042547;26;20876;-44
2024/04/11 02:44:46;;;;;;;9.88;1.67;;;13.40;1.00;;;;;;22094761;26;20019;-44
2024/04/11 02:54:48;;;;;;;5.35;1.60;;;13.30;1.00;;;;;;22091020;26;20007;-44
2024/04/11 03:04:50;;;;;;;5.35;1.40;;;13.30;1.00;;;;;;22076816;26;20027;-44
2024/04/11 03:14:52;;;;;;;6.70;1.52;;;13.20;1.00;;;;;;22085087;26;20001;-44
2024/04/11 03:24:53;;;;;;;6.40;1.75;;;13.20;1.00;;;;;;22086671;26;20012;-44
2024/04/11 03:34:54;;;;;;;6.95;2.10;;;13.30;1.00;;;;;;22087865;26;20049;-43
2024/04/11 03:45:10;;;;;;;9.20;1.70;;;13.20;1.00;;;;;;22090113;26;20096;-43
2024/04/11 03:55:12;;;;;;;4.80;1.75;;;13.10;1.00;;;;;;22072624;26;21374;-44
2024/04/11 04:05:15;;;;;;;9.45;2.28;;;13.00;1.00;;;;;;22077343;26;20001;-43
2024/04/11 04:15:16;;;;;;;6.32;2.10;;;12.90;1.00;;;;;;22082242;26;20398;-44
2024/04/11 04:25:17;;;;;;;7.88;2.70;;;12.90;1.00;;;;;;22083778;26;20359;-44
2024/04/11 04:35:19;;;;;;;8.48;2.15;;;13.00;1.00;;;;;;22086601;26;20467;-44
2024/04/11 04:45:20;;;;;;;9.40;1.80;;;13.00;1.00;;;;;;22081744;26;20340;-44
2024/04/11 04:55:21;;;;;;;9.13;2.53;;;12.90;1.00;;;;;;22073738;26;20476;-44
2024/04/11 05:05:22;;;;;;;7.43;2.08;;;13.00;1.00;;;;;;22081236;26;20000;-44
2024/04/11 05:15:25;;;;;;;8.43;2.40;;;12.80;1.00;;;;;;22082650;26;19996;-44
2024/04/11 05:25:30;;;;;;;6.90;2.65;;;12.70;1.00;;;;;;22079396;26;20074;-44
2024/04/11 05:35:31;;;;;;;7.47;2.92;;;12.60;1.00;;;;;;22075650;26;20048;-44
2024/04/11 05:45:33;;;;;;;4.20;2.47;;;12.40;10.90;;;;;;22086539;26;20012;-43
2024/04/11 05:55:35;;;;;;;6.70;2.80;;;12.50;18.90;;;;;;22086768;26;20017;-44
2024/04/11 06:05:36;;;;;;;8.45;3.47;;;12.60;24.80;;;;;;22062993;26;20071;-43
2024/04/11 06:15:38;;;;;;;7.00;3.80;;;12.30;47.00;;;;;;22075770;26;20015;-43
2024/04/11 06:25:39;;;;;;;8.40;4.40;;;12.20;87.30;;;;;;22070989;26;20425;-43
2024/04/11 06:35:40;;;;;;;9.95;5.18;;;12.20;99.90;;;;;;22080678;26;20040;-44
2024/04/11 06:45:41;;;;;;;14.23;5.30;;;12.10;99.90;;;;;;22106342;26;20041;-43
2024/04/11 06:55:46;;;;;;;12.45;5.22;;;12.10;99.90;;;;;;22035803;26;20777;-43
2024/04/11 07:05:52;;;;;;;16.00;6.75;;;12.20;99.90;;;;;;22086081;26;20016;-44
2024/04/11 07:15:58;;;;;;;10.85;5.40;;;12.30;99.90;;;;;;22121021;26;20067;-43
2024/04/11 07:26:00;;;;;;;10.82;5.78;;;12.30;99.90;;;;;;22084726;26;20008;-44
2024/04/11 07:36:01;;;;;;;10.23;5.53;;;12.40;99.90;;;;;;22087041;26;20008;-43
2024/04/11 07:46:04;;;;;;;14.35;6.10;;;12.40;99.90;;;;;;22141127;26;20178;-43
2024/04/11 07:56:06;;;;;;;9.73;5.80;;;12.40;99.90;;;;;;22137188;26;20376;-43
2024/04/11 08:06:10;;;;;;;13.05;7.15;;;12.50;99.90;;;;;;22147770;26;20001;-43
2024/04/11 08:16:11;;;;;;;11.57;6.70;;;12.60;99.90;;;;;;22154374;26;20043;-43
2024/04/11 08:26:13;;;;;;;13.88;8.43;;;12.60;99.90;;;;;;22152778;26;20004;-43
2024/04/11 08:36:14;;;;;;;18.05;11.38;;;12.80;99.90;;;;;;22136737;26;20000;-43
2024/04/11 08:46:15;;;;;;;18.25;12.55;;;13.00;99.90;;;;;;22134781;26;22176;-44
2024/04/11 08:56:17;;;;;;;21.35;14.02;;;13.00;99.90;;;;;;22126488;26;20361;-43
2024/04/11 09:06:28;;;;;;;22.10;12.75;;;13.20;99.90;;;;;;22123658;26;20384;-44
2024/04/11 09:16:29;;;;;;;16.58;10.68;;;13.30;99.90;;;;;;22123666;26;20009;-43
2024/04/11 09:26:30;;;;;;;17.35;10.40;;;13.30;99.90;;;;;;22129779;26;20604;-43
2024/04/11 09:36:34;;;;;;;13.23;8.40;;;13.40;99.90;;;;;;22122532;26;20441;-43
2024/04/11 09:46:41;;;;;;;19.30;10.60;;;13.50;99.90;;;;;;22131836;26;20010;-44
2024/04/11 09:56:46;;;;;;;13.52;8.10;;;13.60;99.90;;;;;;22147607;26;20008;-44
2024/04/11 10:06:52;;;;;;;11.40;6.80;;;13.50;99.90;;;;;;22135340;26;20011;-44
2024/04/11 10:16:55;;;;;;;12.07;6.72;;;13.60;99.90;;;;;;22145038;26;20001;-44
2024/04/11 10:27:11;;;;;;;12.65;6.55;;;13.60;99.90;;;;;;22129734;26;20091;-44
2024/04/11 10:37:12;;;;;;;12.10;6.60;;;13.70;99.90;;;;;;22122386;26;20008;-44
2024/04/11 10:47:17;;;;;;;9.80;6.70;;;14.00;99.90;;;;;;22138099;26;20000;-44
2024/04/11 10:57:18;;;;;;;11.55;6.90;;;14.00;99.90;;;;;;22130627;26;20079;-44
2024/04/11 11:07:23;;;;;;;14.27;8.88;;;14.10;99.90;;;;;;22121699;26;19996;-45
2024/04/11 11:17:27;;;;;;;12.75;9.27;;;14.20;99.90;;;;;;22143976;26;20028;-46
2024/04/11 11:27:28;;;;;;;16.75;13.02;;;14.40;99.90;;;;;;22136972;26;20013;-44
2024/04/11 11:37:31;;;;;;;10.65;8.75;;;14.60;99.90;;;;;;22148106;26;20007;-45
2024/04/11 11:47:37;;;;;;;12.05;9.93;;;14.80;99.90;;;;;;22134904;26;20110;-44
2024/04/11 11:57:41;;;;;;;10.73;9.60;;;15.00;97.60;;;;;;22131358;26;20007;-44
2024/04/11 12:07:46;;;;;;;10.00;8.57;;;15.10;77.50;;;;;;22100575;26;21037;-44
2024/04/11 12:17:48;;;;;;;11.05;7.20;;;15.20;72.80;;;;;;22126056;26;20013;-44
2024/04/11 12:27:49;;;;;;;9.38;6.78;;;15.60;60.10;;;;;;22131829;26;20013;-44
2024/04/11 12:37:50;;;;;;;8.43;5.50;;;15.70;44.10;;;;;;22126391;26;20238;-44
2024/04/11 12:47:59;;;;;;;8.07;4.85;;;15.70;32.20;;;;;;22142424;26;20009;-44
2024/04/11 12:58:06;;;;;;;8.88;5.55;;;15.60;21.30;;;;;;22145516;26;20507;-44
2024/04/11 13:08:07;;;;;;;8.77;4.03;;;15.50;21.40;;;;;;22123406;26;20052;-44
2024/04/11 13:18:11;;;;;;;7.88;4.60;;;15.40;26.00;;;;;;22130376;26;20004;-44
2024/04/11 13:28:13;;;;;;;9.68;7.30;;;15.30;34.90;;;;;;22045358;26;20087;-44
2024/04/11 13:38:14;;;;;;;13.73;7.85;;;15.20;34.90;;;;;;22132584;26;20009;-44
2024/04/11 13:48:15;;;;;;;12.68;8.02;;;15.10;42.30;;;;;;22055573;26;20019;-44
2024/04/11 13:58:21;;;;;;;14.15;9.88;;;15.10;39.50;;;;;;22077170;26;20001;-44
2024/04/11 14:08:22;;;;;;;15.23;12.35;;;15.10;33.90;;;;;;21968905;26;20495;-44
2024/04/11 14:18:28;;;;;;;19.25;14.43;;;15.10;36.40;;;;;;21972602;26;20464;-44
2024/04/11 14:28:30;;;;;;;18.43;12.27;;;15.10;33.00;;;;;;22005130;26;20049;-44
2024/04/11 14:38:34;;;;;;;15.25;11.02;;;15.10;39.20;;;;;;22031503;26;20004;-44
2024/04/11 14:48:36;;;;;;;11.25;7.63;;;15.00;40.80;;;;;;22007476;26;20006;-44
2024/04/11 14:58:42;;;;;;;8.45;5.13;;;15.10;35.60;;;;;;22005460;26;19996;-44
2024/04/11 15:08:46;;;;;;;6.60;4.40;;;15.10;32.10;;;;;;21933849;26;20057;-44
2024/04/11 15:18:50;;;;;;;11.35;7.50;;;15.00;31.00;;;;;;22004311;26;20016;-44
2024/04/11 15:28:52;;;;;;;13.35;8.40;;;15.00;29.00;;;;;;22009852;26;19997;-44
2024/04/11 15:38:53;;;;;;;9.68;7.60;;;15.00;27.90;;;;;;21995490;26;20013;-44
2024/04/11 15:48:56;;;;;;;9.73;7.18;;;15.00;24.50;;;;;;21999183;26;20005;-44
2024/04/11 15:58:58;;;;;;;7.40;5.85;;;15.00;22.70;;;;;;21995367;26;20950;-44
2024/04/11 16:09:12;;;;;;;10.52;5.70;;;15.00;21.60;;;;;;21979973;26;20140;-44
2024/04/11 16:19:13;;;;;;;17.45;8.65;;;14.90;25.90;;;;;;21988202;26;20059;-44
2024/04/11 16:29:19;;;;;;;19.80;9.90;;;14.90;32.50;;;;;;21992713;26;19997;-44
2024/04/11 16:49:36;;;;;;;18.98;10.32;;;14.80;43.90;;;;;;21969714;26;19996;-44
2024/04/11 16:59:41;;;;;;;16.43;8.33;;;14.70;48.40;;;;;;21919929;26;20119;-44
2024/04/11 17:09:43;;;;;;;15.23;6.55;;;14.60;48.90;;;;;;21973156;26;19997;-44
2024/04/11 17:30:23;;;;;;;10.23;5.32;;;14.60;35.40;;;;;;21981256;26;19997;-44
2024/04/11 17:40:37;;;;;;;12.63;6.88;;;14.60;28.40;;;;;;21976836;26;20321;-44
2024/04/11 17:50:38;;;;;;;11.05;6.97;;;14.50;33.50;;;;;;21981082;26;20005;-44
2024/04/11 18:00:40;;;;;;;9.25;5.40;;;14.40;38.00;;;;;;21996751;26;20006;-44
2024/04/11 18:10:49;;;;;;;10.07;5.22;;;14.40;49.00;;;;;;21993350;26;20087;-44
2024/04/11 18:20:54;;;;;;;8.23;4.95;;;14.30;56.90;;;;;;21998184;26;20006;-44
2024/04/11 18:31:04;;;;;;;7.45;4.38;;;14.30;66.60;;;;;;21983136;26;20456;-44
2024/04/11 18:41:11;;;;;;;9.52;5.28;;;14.30;74.10;;;;;;21998502;26;19994;-44
2024/04/11 18:51:12;;;;;;;9.60;6.33;;;14.30;88.80;;;;;;21993042;26;20020;-44
2024/04/11 19:01:17;;;;;;;10.80;6.32;;;14.30;94.10;;;;;;21993292;26;20103;-44
2024/04/11 19:11:20;;;;;;;13.23;7.65;;;14.10;99.90;;;;;;21997197;26;20341;-43
2024/04/11 19:21:21;;;;;;;18.30;9.85;;;14.10;99.90;;;;;;22009826;26;20001;-44
2024/04/11 19:31:23;;;;;;;15.73;10.35;;;14.10;99.90;;;;;;21995218;26;20005;-44
2024/04/11 19:41:27;;;;;;;21.88;11.98;;;14.00;99.90;;;;;;21985844;26;20014;-44
2024/04/11 19:51:28;;;;;;;21.65;12.95;;;14.00;99.90;;;;;;21983660;26;20342;-44
2024/04/11 20:01:48;;;;;;;25.15;14.18;;;13.90;99.90;;;;;;21988301;26;20369;-44
2024/04/11 20:11:49;;;;;;;22.05;13.23;;;13.80;99.90;;;;;;21983619;26;20012;-44
2024/04/11 20:21:53;;;;;;;26.02;15.52;;;13.80;99.90;;;;;;21981093;26;20245;-44
2024/04/11 20:31:54;;;;;;;35.92;18.48;;;13.90;99.90;;;;;;21987737;26;20073;-44
2024/04/11 21:33:34;;;;;;;45.72;22.95;;;13.90;99.90;;;;;;21906088;26;21522;-43
2024/04/11 21:43:35;;;;;;;49.72;24.05;;;13.90;99.90;;;;;;21947992;26;20095;-44
2024/04/11 21:53:36;;;;;;;46.55;23.83;;;13.80;99.90;;;;;;21947289;26;20001;-44
2024/04/11 22:03:39;;;;;;;60.05;26.52;;;13.70;99.90;;;;;;21970178;26;20057;-44
2024/04/11 22:13:41;;;;;;;56.15;25.75;;;13.70;99.90;;;;;;21973377;26;20400;-44
2024/04/11 22:23:46;;;;;;;60.97;28.40;;;13.60;99.90;;;;;;21975994;26;20017;-44
2024/04/11 22:33:50;;;;;;;55.05;27.05;;;13.70;99.90;;;;;;21969224;26;20013;-44
2024/04/11 22:43:54;;;;;;;49.25;26.48;;;13.70;99.90;;;;;;21975721;26;19999;-44
2024/04/11 22:53:56;;;;;;;52.53;26.92;;;13.70;99.90;;;;;;21985980;26;20005;-44
2024/04/11 23:03:58;;;;;;;51.50;26.98;;;13.70;99.90;;;;;;21971330;26;19997;-44
2024/04/11 23:13:59;;;;;;;46.67;26.27;;;13.70;99.90;;;;;;21975327;26;20013;-44
2024/04/11 23:24:00;;;;;;;45.38;24.75;;;13.80;99.90;;;;;;21984951;26;19998;-44
2024/04/11 23:34:01;;;;;;;43.45;25.35;;;13.80;99.90;;;;;;21987098;26;20029;-44
2024/04/11 23:44:03;;;;;;;34.80;22.58;;;13.80;99.90;;;;;;21988191;26;20049;-44
2024/04/11 23:54:05;;;;;;;29.65;19.77;;;13.90;99.90;;;;;;21987276;26;20013;-44
